sensor_id;sensor_type;location;lat;lon;timestamp;pressure;altitude;pressure_sealevel;temperature;humidity
6615;BME280;3343;42.896;23.912;2023-02-15T00:01:55;97772.22;;;2.76;86.51
6615;BME280;3343;42.896;23.912;2023-02-15T00:04:25;97776.75;;;2.85;87.47
6615;BME280;3343;42.896;23.912;2023-02-15T00:07:13;97772.72;;;2.81;87.65
6615;BME280;3343;42.896;23.912;2023-02-15T00:09:40;97776.25;;;2.80;86.92
6615;BME280;3343;42.896;23.912;2023-02-15T00:12:06;97769.84;;;2.97;85.71
6615;BME280;3343;42.896;23.912;2023-02-15T00:14:33;97779.94;;;3.01;84.60
6615;BME280;3343;42.896;23.912;2023-02-15T00:17:00;97782.56;;;3.36;83.81
6615;BME280;3343;42.896;23.912;2023-02-15T00:19:28;97772.66;;;3.41;83.20
6615;BME280;3343;42.896;23.912;2023-02-15T00:21:55;97780.81;;;2.89;85.40
6615;BME280;3343;42.896;23.912;2023-02-15T00:24:22;97767.97;;;2.99;85.13
6615;BME280;3343;42.896;23.912;2023-02-15T00:26:49;97776.75;;;3.33;83.29
6615;BME280;3343;42.896;23.912;2023-02-15T00:29:17;97782.13;;;3.66;82.06
6615;BME280;3343;42.896;23.912;2023-02-15T00:31:45;97775.22;;;3.54;82.09
6615;BME280;3343;42.896;23.912;2023-02-15T00:34:13;97763.78;;;3.44;82.37
6615;BME280;3343;42.896;23.912;2023-02-15T00:36:42;97761.00;;;3.47;83.25
6615;BME280;3343;42.896;23.912;2023-02-15T00:39:09;97762.53;;;3.49;82.63
6615;BME280;3343;42.896;23.912;2023-02-15T00:41:36;97760.09;;;3.35;82.85
6615;BME280;3343;42.896;23.912;2023-02-15T00:44:03;97772.50;;;3.56;81.49
6615;BME280;3343;42.896;23.912;2023-02-15T00:46:31;97774.03;;;3.58;81.17
6615;BME280;3343;42.896;23.912;2023-02-15T00:48:58;97771.56;;;3.57;81.13
6615;BME280;3343;42.896;23.912;2023-02-15T00:51:25;97767.13;;;3.46;80.82
6615;BME280;3343;42.896;23.912;2023-02-15T00:53:53;97770.63;;;3.34;82.19
6615;BME280;3343;42.896;23.912;2023-02-15T00:56:19;97779.44;;;2.96;84.34
6615;BME280;3343;42.896;23.912;2023-02-15T00:58:46;97781.44;;;3.16;83.25
6615;BME280;3343;42.896;23.912;2023-02-15T01:01:15;97781.84;;;3.34;83.25
6615;BME280;3343;42.896;23.912;2023-02-15T01:03:42;97785.47;;;3.20;83.95
6615;BME280;3343;42.896;23.912;2023-02-15T01:06:09;97782.00;;;3.44;83.49
6615;BME280;3343;42.896;23.912;2023-02-15T01:08:37;97781.47;;;3.51;82.80
6615;BME280;3343;42.896;23.912;2023-02-15T01:11:07;97780.50;;;3.76;82.71
6615;BME280;3343;42.896;23.912;2023-02-15T01:13:34;97779.31;;;3.80;81.64
6615;BME280;3343;42.896;23.912;2023-02-15T01:16:02;97773.75;;;3.85;81.73
6615;BME280;3343;42.896;23.912;2023-02-15T01:18:29;97766.19;;;3.93;81.02
6615;BME280;3343;42.896;23.912;2023-02-15T01:20:57;97763.34;;;3.96;80.77
6615;BME280;3343;42.896;23.912;2023-02-15T01:23:24;97783.84;;;4.01;80.93
6615;BME280;3343;42.896;23.912;2023-02-15T01:25:51;97772.47;;;3.91;81.30
6615;BME280;3343;42.896;23.912;2023-02-15T01:28:19;97773.38;;;3.43;84.35
6615;BME280;3343;42.896;23.912;2023-02-15T01:30:46;97774.66;;;3.38;84.61
6615;BME280;3343;42.896;23.912;2023-02-15T01:33:12;97773.56;;;3.53;84.02
6615;BME280;3343;42.896;23.912;2023-02-15T01:35:44;97784.25;;;3.72;84.08
6615;BME280;3343;42.896;23.912;2023-02-15T01:38:11;97775.44;;;3.51;84.69
6615;BME280;3343;42.896;23.912;2023-02-15T01:40:38;97774.09;;;3.45;85.54
6615;BME280;3343;42.896;23.912;2023-02-15T01:43:09;97772.94;;;3.96;83.83
6615;BME280;3343;42.896;23.912;2023-02-15T01:45:38;97765.25;;;3.48;85.92
6615;BME280;3343;42.896;23.912;2023-02-15T01:48:17;97773.38;;;3.43;86.46
6615;BME280;3343;42.896;23.912;2023-02-15T01:50:48;97769.94;;;3.43;87.25
6615;BME280;3343;42.896;23.912;2023-02-15T01:53:21;97774.88;;;3.59;86.49
6615;BME280;3343;42.896;23.912;2023-02-15T01:55:53;97765.81;;;3.75;86.14
6615;BME280;3343;42.896;23.912;2023-02-15T01:58:21;97767.31;;;3.67;86.23
6615;BME280;3343;42.896;23.912;2023-02-15T02:00:50;97759.38;;;3.57;86.70
6615;BME280;3343;42.896;23.912;2023-02-15T02:03:18;97760.56;;;3.64;86.52
6615;BME280;3343;42.896;23.912;2023-02-15T02:05:50;97759.19;;;3.82;85.53
6615;BME280;3343;42.896;23.912;2023-02-15T02:08:17;97763.56;;;3.82;85.72
6615;BME280;3343;42.896;23.912;2023-02-15T02:10:44;97771.63;;;3.90;84.91
6615;BME280;3343;42.896;23.912;2023-02-15T02:13:11;97772.97;;;4.07;83.83
6615;BME280;3343;42.896;23.912;2023-02-15T02:15:43;97763.34;;;3.96;84.54
6615;BME280;3343;42.896;23.912;2023-02-15T02:18:25;97761.81;;;3.47;86.20
6615;BME280;3343;42.896;23.912;2023-02-15T02:21:14;97750.53;;;3.71;84.79
6615;BME280;3343;42.896;23.912;2023-02-15T02:24:00;97766.00;;;3.61;85.74
6615;BME280;3343;42.896;23.912;2023-02-15T02:27:06;97767.06;;;3.59;85.13
6615;BME280;3343;42.896;23.912;2023-02-15T02:30:02;97763.69;;;3.45;85.74
6615;BME280;3343;42.896;23.912;2023-02-15T02:33:03;97759.75;;;3.64;84.65
6615;BME280;3343;42.896;23.912;2023-02-15T02:35:38;97767.78;;;3.37;85.82
6615;BME280;3343;42.896;23.912;2023-02-15T02:38:23;97773.66;;;3.51;84.87
6615;BME280;3343;42.896;23.912;2023-02-15T02:40:57;97764.94;;;3.05;87.67
6615;BME280;3343;42.896;23.912;2023-02-15T02:43:32;97759.78;;;2.68;89.61
6615;BME280;3343;42.896;23.912;2023-02-15T02:46:05;97768.47;;;3.28;87.21
6615;BME280;3343;42.896;23.912;2023-02-15T02:48:35;97776.44;;;3.37;86.29
6615;BME280;3343;42.896;23.912;2023-02-15T02:51:03;97771.56;;;3.33;86.06
6615;BME280;3343;42.896;23.912;2023-02-15T02:53:31;97770.72;;;3.32;86.13
6615;BME280;3343;42.896;23.912;2023-02-15T02:56:03;97773.06;;;3.24;86.13
6615;BME280;3343;42.896;23.912;2023-02-15T02:58:36;97786.28;;;2.97;87.75
6615;BME280;3343;42.896;23.912;2023-02-15T03:01:06;97783.44;;;2.76;88.09
6615;BME280;3343;42.896;23.912;2023-02-15T03:03:39;97783.81;;;3.19;86.75
6615;BME280;3343;42.896;23.912;2023-02-15T03:06:11;97780.94;;;3.11;86.43
6615;BME280;3343;42.896;23.912;2023-02-15T03:08:42;97784.56;;;3.09;85.96
6615;BME280;3343;42.896;23.912;2023-02-15T03:11:11;97789.94;;;3.18;85.32
6615;BME280;3343;42.896;23.912;2023-02-15T03:13:39;97786.91;;;3.25;85.00
6615;BME280;3343;42.896;23.912;2023-02-15T03:16:09;97785.97;;;3.26;84.65
6615;BME280;3343;42.896;23.912;2023-02-15T03:18:56;97790.38;;;3.12;85.50
6615;BME280;3343;42.896;23.912;2023-02-15T03:21:30;97784.22;;;2.66;87.08
6615;BME280;3343;42.896;23.912;2023-02-15T03:24:00;97784.00;;;2.43;89.21
6615;BME280;3343;42.896;23.912;2023-02-15T03:26:32;97777.25;;;2.41;90.39
6615;BME280;3343;42.896;23.912;2023-02-15T03:29:03;97784.91;;;2.80;87.54
6615;BME280;3343;42.896;23.912;2023-02-15T03:31:34;97786.50;;;2.94;86.73
6615;BME280;3343;42.896;23.912;2023-02-15T03:34:07;97781.78;;;2.75;86.34
6615;BME280;3343;42.896;23.912;2023-02-15T03:36:41;97788.34;;;3.05;85.75
6615;BME280;3343;42.896;23.912;2023-02-15T03:39:17;97795.22;;;2.69;86.47
6615;BME280;3343;42.896;23.912;2023-02-15T03:41:50;97798.66;;;2.44;87.23
6615;BME280;3343;42.896;23.912;2023-02-15T03:44:25;97789.50;;;2.64;86.76
6615;BME280;3343;42.896;23.912;2023-02-15T03:46:58;97792.47;;;2.83;85.54
6615;BME280;3343;42.896;23.912;2023-02-15T03:49:32;97793.25;;;2.97;85.27
6615;BME280;3343;42.896;23.912;2023-02-15T03:52:02;97799.50;;;2.94;84.76
6615;BME280;3343;42.896;23.912;2023-02-15T03:54:31;97804.22;;;2.89;85.02
6615;BME280;3343;42.896;23.912;2023-02-15T03:57:14;97809.50;;;2.26;87.69
6615;BME280;3343;42.896;23.912;2023-02-15T04:00:00;97808.44;;;2.66;85.61
6615;BME280;3343;42.896;23.912;2023-02-15T04:02:58;97815.28;;;2.42;86.94
6615;BME280;3343;42.896;23.912;2023-02-15T04:05:31;97814.69;;;2.38;88.35
6615;BME280;3343;42.896;23.912;2023-02-15T04:07:58;97820.25;;;2.58;87.09
6615;BME280;3343;42.896;23.912;2023-02-15T04:10:25;97828.81;;;2.47;87.11
6615;BME280;3343;42.896;23.912;2023-02-15T04:13:09;97827.25;;;2.44;87.68
6615;BME280;3343;42.896;23.912;2023-02-15T04:15:36;97827.13;;;2.59;86.04
6615;BME280;3343;42.896;23.912;2023-02-15T04:18:21;97827.88;;;2.61;86.44
6615;BME280;3343;42.896;23.912;2023-02-15T04:21:03;97824.72;;;2.81;85.33
6615;BME280;3343;42.896;23.912;2023-02-15T04:23:47;97826.81;;;2.76;85.06
6615;BME280;3343;42.896;23.912;2023-02-15T04:26:32;97836.16;;;2.78;84.54
6615;BME280;3343;42.896;23.912;2023-02-15T04:28:58;97825.88;;;2.51;85.27
6615;BME280;3343;42.896;23.912;2023-02-15T04:31:25;97835.88;;;2.32;86.89
6615;BME280;3343;42.896;23.912;2023-02-15T04:33:52;97836.09;;;2.04;88.85
6615;BME280;3343;42.896;23.912;2023-02-15T04:36:20;97835.66;;;2.35;87.89
6615;BME280;3343;42.896;23.912;2023-02-15T04:38:47;97841.19;;;2.31;87.77
6615;BME280;3343;42.896;23.912;2023-02-15T04:41:14;97844.81;;;2.41;87.44
6615;BME280;3343;42.896;23.912;2023-02-15T04:43:41;97842.31;;;2.39;86.85
6615;BME280;3343;42.896;23.912;2023-02-15T04:46:08;97840.84;;;2.48;87.24
6615;BME280;3343;42.896;23.912;2023-02-15T04:48:35;97848.03;;;2.70;86.11
6615;BME280;3343;42.896;23.912;2023-02-15T04:51:05;97845.22;;;2.73;85.56
6615;BME280;3343;42.896;23.912;2023-02-15T04:53:33;97845.72;;;2.78;85.83
6615;BME280;3343;42.896;23.912;2023-02-15T04:56:00;97851.25;;;2.35;87.75
6615;BME280;3343;42.896;23.912;2023-02-15T04:58:27;97840.03;;;2.60;86.22
6615;BME280;3343;42.896;23.912;2023-02-15T05:00:55;97852.72;;;2.65;85.45
6615;BME280;3343;42.896;23.912;2023-02-15T05:03:22;97854.06;;;2.70;85.51
6615;BME280;3343;42.896;23.912;2023-02-15T05:05:50;97854.47;;;2.64;85.81
6615;BME280;3343;42.896;23.912;2023-02-15T05:08:17;97856.88;;;2.67;85.53
6615;BME280;3343;42.896;23.912;2023-02-15T05:10:47;97861.19;;;2.92;84.89
6615;BME280;3343;42.896;23.912;2023-02-15T05:13:15;97859.34;;;2.81;85.13
6615;BME280;3343;42.896;23.912;2023-02-15T05:15:46;97865.13;;;3.34;82.75
6615;BME280;3343;42.896;23.912;2023-02-15T05:18:13;97862.09;;;3.04;83.68
6615;BME280;3343;42.896;23.912;2023-02-15T05:20:40;97861.78;;;3.08;83.06
6615;BME280;3343;42.896;23.912;2023-02-15T05:23:07;97863.44;;;3.09;82.73
6615;BME280;3343;42.896;23.912;2023-02-15T05:25:34;97880.16;;;3.18;82.75
6615;BME280;3343;42.896;23.912;2023-02-15T05:28:20;97882.66;;;3.19;82.22
6615;BME280;3343;42.896;23.912;2023-02-15T05:30:47;97881.56;;;2.98;83.00
6615;BME280;3343;42.896;23.912;2023-02-15T05:33:14;97864.53;;;2.94;83.47
6615;BME280;3343;42.896;23.912;2023-02-15T05:35:42;97891.22;;;3.09;83.07
6615;BME280;3343;42.896;23.912;2023-02-15T05:38:09;97882.22;;;2.89;83.54
6615;BME280;3343;42.896;23.912;2023-02-15T05:40:35;97888.25;;;2.90;84.11
6615;BME280;3343;42.896;23.912;2023-02-15T05:43:02;97898.84;;;2.99;84.19
6615;BME280;3343;42.896;23.912;2023-02-15T05:45:31;97897.50;;;2.94;84.23
6615;BME280;3343;42.896;23.912;2023-02-15T05:47:58;97898.03;;;2.86;84.56
6615;BME280;3343;42.896;23.912;2023-02-15T05:50:25;97903.59;;;3.05;84.37
6615;BME280;3343;42.896;23.912;2023-02-15T05:52:52;97906.13;;;2.56;86.27
6615;BME280;3343;42.896;23.912;2023-02-15T05:55:19;97888.25;;;2.39;87.60
6615;BME280;3343;42.896;23.912;2023-02-15T05:57:46;97913.09;;;2.55;87.34
6615;BME280;3343;42.896;23.912;2023-02-15T06:00:14;97919.03;;;2.96;86.87
6615;BME280;3343;42.896;23.912;2023-02-15T06:02:42;97911.06;;;3.23;86.04
6615;BME280;3343;42.896;23.912;2023-02-15T06:05:09;97904.38;;;3.31;85.15
6615;BME280;3343;42.896;23.912;2023-02-15T06:07:36;97905.81;;;3.35;84.27
6615;BME280;3343;42.896;23.912;2023-02-15T06:10:03;97909.91;;;3.63;83.82
6615;BME280;3343;42.896;23.912;2023-02-15T06:12:31;97913.50;;;3.73;83.21
6615;BME280;3343;42.896;23.912;2023-02-15T06:14:57;97900.31;;;3.64;82.73
6615;BME280;3343;42.896;23.912;2023-02-15T06:17:24;97912.72;;;3.84;83.10
6615;BME280;3343;42.896;23.912;2023-02-15T06:19:52;97914.03;;;3.90;82.75
6615;BME280;3343;42.896;23.912;2023-02-15T06:22:19;97907.44;;;3.97;82.56
6615;BME280;3343;42.896;23.912;2023-02-15T06:24:47;97908.59;;;4.28;81.41
6615;BME280;3343;42.896;23.912;2023-02-15T06:27:13;97908.25;;;4.32;80.32
6615;BME280;3343;42.896;23.912;2023-02-15T06:29:40;97913.53;;;4.55;80.07
6615;BME280;3343;42.896;23.912;2023-02-15T06:32:07;97910.94;;;4.66;78.78
6615;BME280;3343;42.896;23.912;2023-02-15T06:34:34;97910.25;;;4.75;78.86
6615;BME280;3343;42.896;23.912;2023-02-15T06:37:02;97922.34;;;5.32;78.61
6615;BME280;3343;42.896;23.912;2023-02-15T06:39:29;97908.94;;;5.91;75.96
6615;BME280;3343;42.896;23.912;2023-02-15T06:41:57;97916.06;;;6.21;73.17
6615;BME280;3343;42.896;23.912;2023-02-15T06:44:24;97918.25;;;6.57;71.06
6615;BME280;3343;42.896;23.912;2023-02-15T06:46:51;97906.97;;;7.18;69.00
6615;BME280;3343;42.896;23.912;2023-02-15T06:49:18;97901.16;;;7.64;65.66
6615;BME280;3343;42.896;23.912;2023-02-15T06:51:45;97904.53;;;7.85;66.27
6615;BME280;3343;42.896;23.912;2023-02-15T06:54:14;97910.34;;;8.08;63.48
6615;BME280;3343;42.896;23.912;2023-02-15T06:56:41;97902.25;;;7.52;65.77
6615;BME280;3343;42.896;23.912;2023-02-15T06:59:09;97900.94;;;7.27;67.44
6615;BME280;3343;42.896;23.912;2023-02-15T07:01:35;97912.44;;;7.45;69.01
6615;BME280;3343;42.896;23.912;2023-02-15T07:04:03;97900.25;;;8.32;63.97
6615;BME280;3343;42.896;23.912;2023-02-15T07:06:31;97911.13;;;8.76;62.03
6615;BME280;3343;42.896;23.912;2023-02-15T07:08:58;97906.16;;;9.10;59.70
6615;BME280;3343;42.896;23.912;2023-02-15T07:11:26;97908.03;;;9.55;58.58
6615;BME280;3343;42.896;23.912;2023-02-15T07:14:07;97910.78;;;9.81;56.28
6615;BME280;3343;42.896;23.912;2023-02-15T07:16:34;97910.53;;;9.56;57.78
6615;BME280;3343;42.896;23.912;2023-02-15T07:19:01;97916.16;;;9.34;58.30
6615;BME280;3343;42.896;23.912;2023-02-15T07:21:28;97912.97;;;9.31;59.43
6615;BME280;3343;42.896;23.912;2023-02-15T07:23:56;97916.09;;;9.71;58.50
6615;BME280;3343;42.896;23.912;2023-02-15T07:26:23;97913.19;;;9.74;57.33
6615;BME280;3343;42.896;23.912;2023-02-15T07:28:51;97910.25;;;9.95;57.22
6615;BME280;3343;42.896;23.912;2023-02-15T07:31:18;97898.47;;;9.81;57.04
6615;BME280;3343;42.896;23.912;2023-02-15T07:33:45;97918.25;;;9.58;58.57
6615;BME280;3343;42.896;23.912;2023-02-15T07:36:11;97908.16;;;9.81;58.65
6615;BME280;3343;42.896;23.912;2023-02-15T07:38:40;97915.66;;;10.11;57.98
6615;BME280;3343;42.896;23.912;2023-02-15T07:41:10;97914.22;;;10.70;55.87
6615;BME280;3343;42.896;23.912;2023-02-15T07:43:41;97910.25;;;10.66;56.04
6615;BME280;3343;42.896;23.912;2023-02-15T07:46:12;97909.56;;;10.64;56.13
6615;BME280;3343;42.896;23.912;2023-02-15T07:48:41;97913.66;;;10.23;57.19
6615;BME280;3343;42.896;23.912;2023-02-15T07:51:11;97908.38;;;10.05;58.20
6615;BME280;3343;42.896;23.912;2023-02-15T07:53:40;97897.41;;;9.74;60.85
6615;BME280;3343;42.896;23.912;2023-02-15T07:56:09;97902.81;;;10.08;58.66
6615;BME280;3343;42.896;23.912;2023-02-15T07:58:36;97907.47;;;9.97;59.25
6615;BME280;3343;42.896;23.912;2023-02-15T08:01:22;97901.53;;;10.12;60.59
6615;BME280;3343;42.896;23.912;2023-02-15T08:03:50;97898.41;;;10.27;59.87
6615;BME280;3343;42.896;23.912;2023-02-15T08:06:17;97897.50;;;10.36;58.79
6615;BME280;3343;42.896;23.912;2023-02-15T08:08:44;97904.63;;;10.26;57.80
6615;BME280;3343;42.896;23.912;2023-02-15T08:11:17;97898.97;;;10.82;59.21
6615;BME280;3343;42.896;23.912;2023-02-15T08:14:00;97904.84;;;11.28;57.26
6615;BME280;3343;42.896;23.912;2023-02-15T08:16:33;97898.59;;;11.29;54.38
6615;BME280;3343;42.896;23.912;2023-02-15T08:19:02;97898.56;;;10.95;57.18
6615;BME280;3343;42.896;23.912;2023-02-15T08:21:30;97896.19;;;11.52;55.25
6615;BME280;3343;42.896;23.912;2023-02-15T08:23:58;97892.59;;;11.61;53.08
6615;BME280;3343;42.896;23.912;2023-02-15T08:26:26;97889.28;;;12.17;51.36
6615;BME280;3343;42.896;23.912;2023-02-15T08:28:54;97895.50;;;11.92;51.91
6615;BME280;3343;42.896;23.912;2023-02-15T08:31:21;97899.78;;;11.42;53.53
6615;BME280;3343;42.896;23.912;2023-02-15T08:33:51;97899.03;;;11.58;53.00
6615;BME280;3343;42.896;23.912;2023-02-15T08:36:20;97886.91;;;11.90;53.05
6615;BME280;3343;42.896;23.912;2023-02-15T08:38:48;97896.22;;;12.18;50.09
6615;BME280;3343;42.896;23.912;2023-02-15T08:41:17;97898.53;;;12.46;47.83
6615;BME280;3343;42.896;23.912;2023-02-15T08:43:46;97897.69;;;12.21;48.51
6615;BME280;3343;42.896;23.912;2023-02-15T08:46:15;97894.56;;;12.41;50.33
6615;BME280;3343;42.896;23.912;2023-02-15T08:48:42;97903.44;;;12.73;47.30
6615;BME280;3343;42.896;23.912;2023-02-15T08:51:13;97902.09;;;12.93;45.98
6615;BME280;3343;42.896;23.912;2023-02-15T08:53:42;97898.66;;;12.76;46.98
6615;BME280;3343;42.896;23.912;2023-02-15T08:56:10;97907.34;;;13.10;47.31
6615;BME280;3343;42.896;23.912;2023-02-15T08:58:37;97905.63;;;13.41;45.12
6615;BME280;3343;42.896;23.912;2023-02-15T09:01:12;97914.91;;;13.68;45.05
6615;BME280;3343;42.896;23.912;2023-02-15T09:03:39;97918.59;;;13.59;43.14
6615;BME280;3343;42.896;23.912;2023-02-15T09:06:06;97918.13;;;13.86;42.46
6615;BME280;3343;42.896;23.912;2023-02-15T09:08:34;97912.28;;;13.68;40.56
6615;BME280;3343;42.896;23.912;2023-02-15T09:11:09;97910.53;;;14.14;40.67
6615;BME280;3343;42.896;23.912;2023-02-15T09:13:37;97911.81;;;14.41;39.42
6615;BME280;3343;42.896;23.912;2023-02-15T09:16:06;97908.88;;;14.59;38.89
6615;BME280;3343;42.896;23.912;2023-02-15T09:18:35;97900.81;;;14.29;39.33
6615;BME280;3343;42.896;23.912;2023-02-15T09:21:07;97901.13;;;14.12;40.55
6615;BME280;3343;42.896;23.912;2023-02-15T09:23:36;97899.94;;;14.37;40.18
6615;BME280;3343;42.896;23.912;2023-02-15T09:26:08;97894.47;;;13.93;39.68
6615;BME280;3343;42.896;23.912;2023-02-15T09:28:35;97886.47;;;13.70;40.08
6615;BME280;3343;42.896;23.912;2023-02-15T09:31:07;97887.94;;;14.26;39.24
6615;BME280;3343;42.896;23.912;2023-02-15T09:33:35;97886.41;;;14.32;37.70
6615;BME280;3343;42.896;23.912;2023-02-15T09:36:02;97885.84;;;14.59;36.63
6615;BME280;3343;42.896;23.912;2023-02-15T09:38:29;97889.53;;;14.73;37.83
6615;BME280;3343;42.896;23.912;2023-02-15T09:41:07;97888.78;;;14.42;37.87
6615;BME280;3343;42.896;23.912;2023-02-15T09:43:42;97886.03;;;14.35;37.86
6615;BME280;3343;42.896;23.912;2023-02-15T09:46:30;97882.09;;;14.91;37.22
6615;BME280;3343;42.896;23.912;2023-02-15T09:49:08;97881.00;;;14.86;36.25
6615;BME280;3343;42.896;23.912;2023-02-15T09:51:51;97873.75;;;13.96;37.02
6615;BME280;3343;42.896;23.912;2023-02-15T09:54:33;97870.69;;;12.98;39.23
6615;BME280;3343;42.896;23.912;2023-02-15T09:57:10;97871.63;;;12.50;42.11
6615;BME280;3343;42.896;23.912;2023-02-15T09:59:45;97873.28;;;12.35;41.36
6615;BME280;3343;42.896;23.912;2023-02-15T10:02:27;97877.03;;;11.84;42.94
6615;BME280;3343;42.896;23.912;2023-02-15T10:05:05;97866.56;;;11.66;42.33
6615;BME280;3343;42.896;23.912;2023-02-15T10:10:32;97869.00;;;12.34;41.37
6615;BME280;3343;42.896;23.912;2023-02-15T10:13:16;97864.47;;;12.75;41.18
6615;BME280;3343;42.896;23.912;2023-02-15T10:15:57;97857.34;;;12.84;42.63
6615;BME280;3343;42.896;23.912;2023-02-15T10:18:46;97852.41;;;12.81;41.51
6615;BME280;3343;42.896;23.912;2023-02-15T10:21:24;97840.59;;;12.52;40.68
6615;BME280;3343;42.896;23.912;2023-02-15T10:24:09;97845.78;;;13.40;39.87
6615;BME280;3343;42.896;23.912;2023-02-15T10:26:43;97839.88;;;13.61;39.38
6615;BME280;3343;42.896;23.912;2023-02-15T10:29:21;97841.13;;;13.73;39.57
6615;BME280;3343;42.896;23.912;2023-02-15T10:31:58;97840.00;;;14.36;38.30
6615;BME280;3343;42.896;23.912;2023-02-15T10:34:36;97839.31;;;14.80;36.86
6615;BME280;3343;42.896;23.912;2023-02-15T10:37:29;97834.00;;;14.94;36.81
6615;BME280;3343;42.896;23.912;2023-02-15T10:40:03;97832.84;;;14.45;37.29
6615;BME280;3343;42.896;23.912;2023-02-15T10:42:44;97831.00;;;14.83;37.37
6615;BME280;3343;42.896;23.912;2023-02-15T10:45:22;97821.31;;;14.90;36.65
6615;BME280;3343;42.896;23.912;2023-02-15T10:48:02;97824.88;;;14.82;36.11
6615;BME280;3343;42.896;23.912;2023-02-15T10:50:43;97816.41;;;14.12;36.92
6615;BME280;3343;42.896;23.912;2023-02-15T10:53:25;97805.94;;;13.95;38.88
6615;BME280;3343;42.896;23.912;2023-02-15T10:56:04;97812.16;;;14.78;36.68
6615;BME280;3343;42.896;23.912;2023-02-15T10:58:47;97818.00;;;15.03;35.22
6615;BME280;3343;42.896;23.912;2023-02-15T11:01:23;97809.94;;;15.25;35.44
6615;BME280;3343;42.896;23.912;2023-02-15T11:04:30;97807.19;;;15.55;34.98
6615;BME280;3343;42.896;23.912;2023-02-15T11:07:05;97808.91;;;15.77;34.96
6615;BME280;3343;42.896;23.912;2023-02-15T11:09:38;97802.41;;;15.80;35.43
6615;BME280;3343;42.896;23.912;2023-02-15T11:12:10;97805.75;;;15.67;34.49
6615;BME280;3343;42.896;23.912;2023-02-15T11:14:43;97797.78;;;15.16;35.32
6615;BME280;3343;42.896;23.912;2023-02-15T11:17:16;97807.31;;;14.96;35.59
6615;BME280;3343;42.896;23.912;2023-02-15T11:19:53;97804.66;;;14.96;36.41
6615;BME280;3343;42.896;23.912;2023-02-15T11:22:21;97803.94;;;15.02;35.75
6615;BME280;3343;42.896;23.912;2023-02-15T11:24:49;97796.97;;;14.72;36.23
6615;BME280;3343;42.896;23.912;2023-02-15T11:27:19;97793.50;;;14.56;36.05
6615;BME280;3343;42.896;23.912;2023-02-15T11:29:53;97792.31;;;14.59;37.32
6615;BME280;3343;42.896;23.912;2023-02-15T11:32:25;97794.97;;;14.88;35.88
6615;BME280;3343;42.896;23.912;2023-02-15T11:34:55;97788.22;;;14.86;35.77
6615;BME280;3343;42.896;23.912;2023-02-15T11:37:29;97790.59;;;14.95;36.23
6615;BME280;3343;42.896;23.912;2023-02-15T11:39:59;97785.00;;;14.09;36.93
6615;BME280;3343;42.896;23.912;2023-02-15T11:42:30;97778.81;;;14.31;36.71
6615;BME280;3343;42.896;23.912;2023-02-15T11:45:02;97773.59;;;14.75;35.96
6615;BME280;3343;42.896;23.912;2023-02-15T11:47:32;97767.25;;;15.06;35.61
6615;BME280;3343;42.896;23.912;2023-02-15T11:49:59;97761.06;;;15.35;34.92
6615;BME280;3343;42.896;23.912;2023-02-15T11:52:26;97762.34;;;15.39;34.22
6615;BME280;3343;42.896;23.912;2023-02-15T11:54:53;97756.47;;;15.43;34.10
6615;BME280;3343;42.896;23.912;2023-02-15T11:57:23;97758.81;;;15.53;33.33
6615;BME280;3343;42.896;23.912;2023-02-15T11:59:55;97748.81;;;15.70;33.62
6615;BME280;3343;42.896;23.912;2023-02-15T12:02:24;97760.75;;;15.44;34.20
6615;BME280;3343;42.896;23.912;2023-02-15T12:04:56;97749.44;;;15.93;33.03
6615;BME280;3343;42.896;23.912;2023-02-15T12:07:28;97750.25;;;15.93;33.68
6615;BME280;3343;42.896;23.912;2023-02-15T12:10:02;97747.25;;;15.75;32.99
6615;BME280;3343;42.896;23.912;2023-02-15T12:12:34;97736.81;;;15.74;33.82
6615;BME280;3343;42.896;23.912;2023-02-15T12:15:03;97739.06;;;16.26;33.32
6615;BME280;3343;42.896;23.912;2023-02-15T12:17:32;97731.44;;;15.52;34.43
6615;BME280;3343;42.896;23.912;2023-02-15T12:20:04;97735.22;;;15.22;34.22
6615;BME280;3343;42.896;23.912;2023-02-15T12:22:34;97737.13;;;14.62;35.86
6615;BME280;3343;42.896;23.912;2023-02-15T12:25:19;97730.97;;;14.18;35.86
6615;BME280;3343;42.896;23.912;2023-02-15T12:27:47;97713.16;;;14.12;37.66
6615;BME280;3343;42.896;23.912;2023-02-15T12:30:19;97716.47;;;14.73;36.36
6615;BME280;3343;42.896;23.912;2023-02-15T12:32:50;97714.69;;;15.09;36.06
6615;BME280;3343;42.896;23.912;2023-02-15T12:35:27;97709.97;;;15.47;35.23
6615;BME280;3343;42.896;23.912;2023-02-15T12:37:56;97706.91;;;15.86;33.67
6615;BME280;3343;42.896;23.912;2023-02-15T12:40:27;97701.66;;;15.93;32.44
6615;BME280;3343;42.896;23.912;2023-02-15T12:42:54;97694.22;;;15.82;32.50
6615;BME280;3343;42.896;23.912;2023-02-15T12:45:24;97696.25;;;16.08;32.67
6615;BME280;3343;42.896;23.912;2023-02-15T12:48:14;97695.56;;;15.99;32.78
6615;BME280;3343;42.896;23.912;2023-02-15T12:50:44;97684.47;;;15.25;32.69
6615;BME280;3343;42.896;23.912;2023-02-15T12:53:17;97684.56;;;15.17;33.54
6615;BME280;3343;42.896;23.912;2023-02-15T12:55:54;97690.25;;;15.56;32.13
6615;BME280;3343;42.896;23.912;2023-02-15T12:58:23;97675.56;;;15.33;32.10
6615;BME280;3343;42.896;23.912;2023-02-15T13:01:04;97678.47;;;15.59;32.23
6615;BME280;3343;42.896;23.912;2023-02-15T13:03:38;97679.97;;;15.47;33.08
6615;BME280;3343;42.896;23.912;2023-02-15T13:06:07;97679.22;;;15.53;31.95
6615;BME280;3343;42.896;23.912;2023-02-15T13:08:37;97673.34;;;15.36;32.66
6615;BME280;3343;42.896;23.912;2023-02-15T13:11:07;97666.94;;;15.52;32.60
6615;BME280;3343;42.896;23.912;2023-02-15T13:13:45;97674.31;;;15.99;32.00
6615;BME280;3343;42.896;23.912;2023-02-15T13:16:14;97671.63;;;15.65;31.83
6615;BME280;3343;42.896;23.912;2023-02-15T13:18:45;97673.94;;;15.74;32.12
6615;BME280;3343;42.896;23.912;2023-02-15T13:21:16;97669.16;;;15.63;32.24
6615;BME280;3343;42.896;23.912;2023-02-15T13:23:48;97665.28;;;15.93;31.82
6615;BME280;3343;42.896;23.912;2023-02-15T13:26:18;97667.16;;;15.29;32.50
6615;BME280;3343;42.896;23.912;2023-02-15T13:28:48;97670.50;;;15.16;32.93
6615;BME280;3343;42.896;23.912;2023-02-15T13:31:18;97670.31;;;15.18;33.26
6615;BME280;3343;42.896;23.912;2023-02-15T13:33:48;97678.31;;;15.46;33.12
6615;BME280;3343;42.896;23.912;2023-02-15T13:36:22;97677.31;;;15.04;33.24
6615;BME280;3343;42.896;23.912;2023-02-15T13:38:58;97673.69;;;15.69;33.04
6615;BME280;3343;42.896;23.912;2023-02-15T13:41:32;97677.50;;;15.88;32.72
6615;BME280;3343;42.896;23.912;2023-02-15T13:44:08;97670.53;;;16.15;31.95